Here is the Quick Look data you requested

The Data originates at the National Weather Service, and is made available here by the UAlbany Department of Atmospheric and Environmental Sciences

Surface Observations

KDOV 190756Z AUTO 31011KT 10SM FEW044 00/M08 A3046 RMK AO2 SLP318 T10011078 $=
KGED 190754Z AUTO 32006KT 10SM CLR 02/M07 A3046 RMK AO2 SLP316 T00171072 $=
KILG 190751Z AUTO 33012KT 10SM CLR M01/M08 A3046 RMK AO2 SLP316 T10111083=